createdAt,value
2018-11-01T00:02:48.480Z,9.70
2018-11-01T00:07:42.929Z,9.70
2018-11-01T00:12:39.346Z,9.70
2018-11-01T00:17:33.160Z,9.70
2018-11-01T00:22:26.557Z,9.60
2018-11-01T00:27:20.087Z,9.40
2018-11-01T00:32:14.692Z,9.20
2018-11-01T00:37:08.021Z,9.10
2018-11-01T00:42:01.401Z,9.10
2018-11-01T00:46:54.703Z,9.10
2018-11-01T00:51:48.035Z,9.20
2018-11-01T00:56:41.501Z,9.30
2018-11-01T01:01:35.010Z,9.20
2018-11-01T01:06:28.460Z,9.10
2018-11-01T01:11:21.754Z,9.10
2018-11-01T01:16:15.853Z,9.20
2018-11-01T01:21:09.159Z,9.20
2018-11-01T01:26:02.666Z,9.20
2018-11-01T01:30:56.021Z,9.10
2018-11-01T01:35:49.444Z,9.10
2018-11-01T01:40:42.881Z,8.90
2018-11-01T01:45:36.263Z,8.90
2018-11-01T01:50:29.752Z,8.90
2018-11-01T01:55:23.171Z,8.80
2018-11-01T02:00:17.679Z,8.90
2018-11-01T02:05:11.450Z,8.90
2018-11-01T02:10:06.098Z,8.80
2018-11-01T02:14:59.505Z,8.70
2018-11-01T02:19:52.884Z,8.70
2018-11-01T02:24:46.263Z,8.60
2018-11-01T02:29:39.739Z,8.60
2018-11-01T02:34:33.113Z,8.50
2018-11-01T02:39:26.485Z,8.50
2018-11-01T02:44:19.777Z,8.40
2018-11-01T02:49:13.238Z,8.30
2018-11-01T02:54:06.755Z,8.20
2018-11-01T02:59:00.075Z,8.10
2018-11-01T03:03:53.380Z,8.10
2018-11-01T03:08:46.774Z,8.00
2018-11-01T03:13:40.824Z,8.10
2018-11-01T03:18:34.224Z,8.00
2018-11-01T03:23:28.573Z,7.90
2018-11-01T03:28:21.875Z,8.00
2018-11-01T03:33:15.849Z,8.20
2018-11-01T03:38:09.308Z,8.20
2018-11-01T03:43:03.023Z,8.20
2018-11-01T03:47:57.097Z,8.10
2018-11-01T03:52:50.432Z,8.10
2018-11-01T03:57:43.781Z,8.00
2018-11-01T04:02:37.143Z,7.90
2018-11-01T04:07:30.451Z,7.90
2018-11-01T04:12:23.867Z,7.80
2018-11-01T04:17:17.207Z,7.90
2018-11-01T04:22:10.586Z,7.90
2018-11-01T04:27:04.443Z,8.20
2018-11-01T04:31:57.689Z,8.20
2018-11-01T04:36:51.030Z,8.10
2018-11-01T04:41:44.361Z,8.00
2018-11-01T04:46:37.714Z,7.90
2018-11-01T04:51:31.336Z,7.80
2018-11-01T04:56:24.907Z,7.60
2018-11-01T05:01:22.669Z,7.70
2018-11-01T05:06:16.753Z,7.80
2018-11-01T05:11:10.071Z,7.90
2018-11-01T05:16:03.371Z,7.70
2018-11-01T05:20:56.690Z,7.70
2018-11-01T05:25:50.705Z,7.70
2018-11-01T05:30:44.034Z,7.70
2018-11-01T05:35:37.371Z,7.60
2018-11-01T05:40:30.746Z,7.70
2018-11-01T05:45:24.151Z,7.70
2018-11-01T05:50:17.470Z,7.50
2018-11-01T05:55:10.791Z,7.40
2018-11-01T06:00:07.738Z,7.40
2018-11-01T06:05:01.190Z,7.60
2018-11-01T06:09:54.533Z,7.70
2018-11-01T06:14:47.843Z,7.70
2018-11-01T06:19:41.194Z,7.70
2018-11-01T06:24:34.768Z,7.60
2018-11-01T06:29:28.280Z,7.50
2018-11-01T06:34:54.894Z,7.60
2018-11-01T06:39:48.235Z,7.60
2018-11-01T06:44:41.694Z,7.60
2018-11-01T06:49:34.962Z,7.80
2018-11-01T06:54:28.306Z,8.00
2018-11-01T06:59:21.917Z,8.00
2018-11-01T07:04:15.731Z,8.10
2018-11-01T07:09:11.577Z,8.10
2018-11-01T07:14:05.606Z,8.20
2018-11-01T07:18:58.913Z,8.30
2018-11-01T07:23:52.234Z,8.20
2018-11-01T07:28:45.519Z,8.10
2018-11-01T07:33:38.928Z,8.10
2018-11-01T07:38:32.277Z,8.20
2018-11-01T07:43:26.521Z,8.20
2018-11-01T07:48:19.801Z,8.30
2018-11-01T07:53:13.368Z,8.20
2018-11-01T07:58:06.909Z,8.20
2018-11-01T08:03:00.521Z,8.30
2018-11-01T08:07:53.861Z,8.30
2018-11-01T08:12:47.831Z,8.30
2018-11-01T08:17:41.699Z,8.50
2018-11-01T08:22:35.037Z,10.00
2018-11-01T08:27:28.447Z,8.70
2018-11-01T08:32:21.791Z,8.70
2018-11-01T08:37:15.143Z,8.70
2018-11-01T08:42:09.215Z,8.90
2018-11-01T08:47:02.594Z,8.90
2018-11-01T08:51:55.946Z,9.00
2018-11-01T08:56:49.427Z,9.10
2018-11-01T09:01:42.752Z,9.20
2018-11-01T09:06:36.177Z,9.20
2018-11-01T09:11:29.565Z,9.30
2018-11-01T09:16:22.921Z,9.40
2018-11-01T09:21:16.324Z,9.40
2018-11-01T09:26:09.663Z,9.40
2018-11-01T09:31:03.265Z,9.50
2018-11-01T09:35:56.688Z,9.50
2018-11-01T09:40:50.056Z,9.50
2018-11-01T09:45:43.456Z,9.60
2018-11-01T09:50:36.850Z,9.70
2018-11-01T09:55:30.323Z,9.80
2018-11-01T10:00:23.645Z,9.90
2018-11-01T10:05:17.024Z,10.00
2018-11-01T10:10:12.040Z,10.00
2018-11-01T10:15:06.225Z,10.10
2018-11-01T10:25:01.344Z,10.10
2018-11-01T10:29:54.828Z,10.00
2018-11-01T10:34:48.219Z,10.20
2018-11-01T10:39:41.697Z,10.30
2018-11-01T10:44:35.609Z,10.30
2018-11-01T10:49:29.519Z,10.50
2018-11-01T10:54:23.495Z,10.60
2018-11-01T10:59:17.631Z,10.60
2018-11-01T11:04:11.470Z,10.50
2018-11-01T11:09:07.795Z,10.60
2018-11-01T11:14:01.150Z,10.70
2018-11-01T11:18:54.469Z,10.80
2018-11-01T11:23:48.156Z,10.90
2018-11-01T11:28:41.677Z,11.00
2018-11-01T11:33:34.993Z,11.10
2018-11-01T11:38:28.252Z,11.00
2018-11-01T11:43:21.575Z,10.80
2018-11-01T11:48:14.871Z,10.70
2018-11-01T11:53:08.292Z,10.80
2018-11-01T11:58:01.653Z,10.70
2018-11-01T12:02:55.697Z,10.60
2018-11-01T12:07:49.380Z,10.60
2018-11-01T12:12:43.260Z,10.50
2018-11-01T12:17:37.501Z,10.50
2018-11-01T12:22:30.840Z,10.50
2018-11-01T12:27:29.322Z,10.50
2018-11-01T12:32:23.278Z,10.50
2018-11-01T12:37:19.857Z,10.70
2018-11-01T12:42:20.005Z,10.80
2018-11-01T12:47:13.367Z,10.90
2018-11-01T12:52:07.431Z,11.00
2018-11-01T12:57:00.819Z,10.90
2018-11-01T13:01:54.746Z,11.00
2018-11-01T13:06:50.932Z,11.00
2018-11-01T13:11:44.422Z,11.00
2018-11-01T13:16:38.314Z,10.80
2018-11-01T13:21:31.801Z,10.60
2018-11-01T13:26:25.901Z,10.50
2018-11-01T13:31:31.688Z,10.50
2018-11-01T13:36:25.582Z,10.30
2018-11-01T13:41:20.833Z,10.30
2018-11-01T13:46:15.562Z,10.20
2018-11-01T13:51:09.012Z,10.20
2018-11-01T13:56:02.298Z,10.20
2018-11-01T14:00:55.649Z,10.20
2018-11-01T14:05:49.223Z,10.10
2018-11-01T14:10:42.602Z,10.10
2018-11-01T14:15:36.799Z,9.90
2018-11-01T14:20:30.191Z,9.90
2018-11-01T14:25:23.666Z,9.90
2018-11-01T14:30:17.036Z,9.80
2018-11-01T14:35:11.570Z,9.70
2018-11-01T14:40:07.378Z,9.60
2018-11-01T14:45:00.703Z,9.60
2018-11-01T14:49:54.098Z,9.50
2018-11-01T14:54:48.777Z,9.40
2018-11-01T14:59:42.358Z,9.30
2018-11-01T15:04:34.775Z,9.30
2018-11-01T15:09:28.388Z,9.20
2018-11-01T15:14:21.929Z,9.20
2018-11-01T15:19:15.393Z,9.20
2018-11-01T15:24:09.570Z,9.30
2018-11-01T15:29:03.261Z,9.30
2018-11-01T15:33:57.942Z,9.40
2018-11-01T15:38:51.326Z,9.30
2018-11-01T15:43:44.698Z,9.20
2018-11-01T15:48:38.623Z,9.10
2018-11-01T15:53:32.477Z,9.20
2018-11-01T15:58:25.845Z,9.20
2018-11-01T16:03:19.514Z,9.30
2018-11-01T16:08:12.857Z,9.30
2018-11-01T16:13:06.205Z,9.30
2018-11-01T16:18:00.190Z,9.30
2018-11-01T16:22:53.572Z,9.30
2018-11-01T16:27:48.022Z,9.40
2018-11-01T16:32:41.452Z,9.30
2018-11-01T16:37:34.907Z,9.30
2018-11-01T16:42:28.460Z,9.30
2018-11-01T16:47:21.882Z,9.40
2018-11-01T16:52:15.340Z,9.40
2018-11-01T16:57:08.781Z,9.50
2018-11-01T17:02:02.541Z,9.50
2018-11-01T17:06:55.972Z,9.50
2018-11-01T17:11:49.353Z,9.50
2018-11-01T17:16:42.704Z,9.60
2018-11-01T17:21:36.219Z,9.50
2018-11-01T17:26:29.606Z,9.50
2018-11-01T17:31:22.947Z,9.40
2018-11-01T17:36:16.365Z,9.30
2018-11-01T17:41:09.892Z,9.30
2018-11-01T17:46:03.598Z,9.30
2018-11-01T17:50:56.909Z,9.30
2018-11-01T17:55:50.290Z,9.30
2018-11-01T18:00:43.847Z,9.30
2018-11-01T18:05:37.169Z,9.20
2018-11-01T18:10:30.519Z,9.20
2018-11-01T18:15:23.867Z,9.10
2018-11-01T18:20:17.298Z,8.90
2018-11-01T18:25:13.696Z,8.90
2018-11-01T18:30:11.218Z,8.80
2018-11-01T18:35:05.682Z,8.80
2018-11-01T18:39:59.140Z,8.80
2018-11-01T18:44:53.432Z,8.80
2018-11-01T18:49:46.810Z,8.80
2018-11-01T18:54:40.729Z,8.90
2018-11-01T18:59:34.187Z,9.00
2018-11-01T19:04:27.589Z,9.10
2018-11-01T19:09:22.628Z,9.20
2018-11-01T19:14:16.419Z,9.20
2018-11-01T19:19:10.326Z,9.20
2018-11-01T19:24:04.027Z,9.20
2018-11-01T19:28:57.670Z,9.20
2018-11-01T19:33:51.633Z,9.20
2018-11-01T19:38:44.821Z,9.20
2018-11-01T19:43:38.129Z,9.20
2018-11-01T19:48:31.446Z,9.20
2018-11-01T19:53:24.819Z,9.20
2018-11-01T19:58:18.252Z,9.20
2018-11-01T20:03:11.650Z,9.10
2018-11-01T20:08:05.475Z,9.10
2018-11-01T20:12:58.822Z,9.20
2018-11-01T20:17:52.178Z,9.30
2018-11-01T20:22:45.818Z,9.30
2018-11-01T20:27:39.871Z,9.40
2018-11-01T20:32:33.333Z,9.50
2018-11-01T20:37:26.692Z,9.50
2018-11-01T20:42:20.150Z,9.50
2018-11-01T20:47:13.805Z,9.50
2018-11-01T20:52:07.498Z,9.40
2018-11-01T20:57:02.000Z,9.40
2018-11-01T21:01:55.653Z,9.50
2018-11-01T21:06:49.088Z,9.60
2018-11-01T21:11:42.746Z,9.60
2018-11-01T21:16:36.387Z,9.60
2018-11-01T21:21:29.709Z,9.50
2018-11-01T21:26:24.082Z,9.50
2018-11-01T21:31:17.484Z,9.60
2018-11-01T21:36:10.928Z,9.70
2018-11-01T21:41:04.538Z,9.80
2018-11-01T21:45:57.864Z,9.90
2018-11-01T21:50:51.425Z,9.90
2018-11-01T21:55:44.808Z,9.80
2018-11-01T22:00:38.114Z,9.90
2018-11-01T22:05:31.468Z,10.00
2018-11-01T22:10:25.760Z,10.10
2018-11-01T22:15:19.204Z,10.30
2018-11-01T22:20:12.626Z,10.40
2018-11-01T22:25:06.940Z,10.50
2018-11-01T22:30:00.349Z,10.60
2018-11-01T22:34:53.785Z,10.70
2018-11-01T22:39:47.080Z,10.60
2018-11-01T22:44:40.447Z,10.60
2018-11-01T22:49:33.772Z,10.60
2018-11-01T22:54:27.092Z,10.60
2018-11-01T22:59:20.510Z,10.60
2018-11-01T23:04:13.809Z,10.50
2018-11-01T23:09:08.827Z,10.40
2018-11-01T23:14:02.111Z,10.30
2018-11-01T23:18:55.438Z,10.30
2018-11-01T23:23:48.800Z,10.30
2018-11-01T23:28:42.091Z,10.30
2018-11-01T23:33:35.500Z,10.30
2018-11-01T23:38:34.425Z,10.30
2018-11-01T23:43:33.515Z,10.30
2018-11-01T23:48:26.394Z,10.30
2018-11-01T23:53:29.896Z,10.40
2018-11-01T23:58:23.708Z,10.50
